sensor_id;sensor_type;location;lat;lon;timestamp;P1;durP1;ratioP1;P2;durP2;ratioP2
26040;SDS011;13816;53.628;9.950;2023-05-16T00:26:53;5.63;;;4.40;;
26040;SDS011;13816;53.628;9.950;2023-05-16T00:29:27;4.90;;;3.73;;
26040;SDS011;13816;53.628;9.950;2023-05-16T00:39:49;3.20;;;2.90;;
26040;SDS011;13816;53.628;9.950;2023-05-16T00:55:35;4.20;;;2.70;;
26040;SDS011;13816;53.628;9.950;2023-05-16T00:58:12;5.20;;;2.70;;
26040;SDS011;13816;53.628;9.950;2023-05-16T01:00:47;10.10;;;2.47;;
26040;SDS011;13816;53.628;9.950;2023-05-16T01:03:20;4.47;;;2.80;;
26040;SDS011;13816;53.628;9.950;2023-05-16T01:06:01;4.30;;;2.87;;
26040;SDS011;13816;53.628;9.950;2023-05-16T01:08:30;4.73;;;2.77;;
26040;SDS011;13816;53.628;9.950;2023-05-16T01:14:11;2.90;;;2.60;;
26040;SDS011;13816;53.628;9.950;2023-05-16T01:16:55;7.43;;;2.60;;
26040;SDS011;13816;53.628;9.950;2023-05-16T01:33:16;6.80;;;3.67;;
26040;SDS011;13816;53.628;9.950;2023-05-16T01:36:02;5.77;;;3.47;;
26040;SDS011;13816;53.628;9.950;2023-05-16T01:39:00;4.20;;;3.70;;
26040;SDS011;13816;53.628;9.950;2023-05-16T01:50:57;7.07;;;2.20;;
26040;SDS011;13816;53.628;9.950;2023-05-16T01:53:28;14.67;;;3.57;;
26040;SDS011;13816;53.628;9.950;2023-05-16T01:56:02;8.17;;;2.40;;
26040;SDS011;13816;53.628;9.950;2023-05-16T01:58:44;9.87;;;2.80;;
26040;SDS011;13816;53.628;9.950;2023-05-16T02:01:12;9.47;;;2.47;;
26040;SDS011;13816;53.628;9.950;2023-05-16T02:03:46;12.17;;;3.37;;
26040;SDS011;13816;53.628;9.950;2023-05-16T02:06:24;9.43;;;2.80;;
26040;SDS011;13816;53.628;9.950;2023-05-16T02:09:01;7.80;;;2.67;;
26040;SDS011;13816;53.628;9.950;2023-05-16T02:27:32;8.23;;;2.23;;
26040;SDS011;13816;53.628;9.950;2023-05-16T02:42:18;15.90;;;2.80;;
26040;SDS011;13816;53.628;9.950;2023-05-16T02:44:51;13.30;;;2.67;;
26040;SDS011;13816;53.628;9.950;2023-05-16T02:47:29;20.43;;;3.27;;
26040;SDS011;13816;53.628;9.950;2023-05-16T02:53:54;22.23;;;3.50;;
26040;SDS011;13816;53.628;9.950;2023-05-16T02:56:31;15.47;;;3.83;;
26040;SDS011;13816;53.628;9.950;2023-05-16T02:59:19;11.90;;;3.07;;
26040;SDS011;13816;53.628;9.950;2023-05-16T03:05:41;18.20;;;4.00;;
26040;SDS011;13816;53.628;9.950;2023-05-16T03:08:14;13.17;;;3.20;;
26040;SDS011;13816;53.628;9.950;2023-05-16T03:14:39;16.90;;;3.97;;
26040;SDS011;13816;53.628;9.950;2023-05-16T03:17:10;12.47;;;3.20;;
26040;SDS011;13816;53.628;9.950;2023-05-16T03:19:40;11.50;;;3.00;;
26040;SDS011;13816;53.628;9.950;2023-05-16T03:41:19;13.80;;;3.03;;
26040;SDS011;13816;53.628;9.950;2023-05-16T03:43:49;13.93;;;2.97;;
26040;SDS011;13816;53.628;9.950;2023-05-16T03:46:19;11.00;;;3.40;;
26040;SDS011;13816;53.628;9.950;2023-05-16T03:48:56;22.33;;;3.83;;
26040;SDS011;13816;53.628;9.950;2023-05-16T03:54:53;20.30;;;4.07;;
26040;SDS011;13816;53.628;9.950;2023-05-16T03:57:30;18.63;;;2.90;;
26040;SDS011;13816;53.628;9.950;2023-05-16T03:59:59;13.40;;;3.60;;
26040;SDS011;13816;53.628;9.950;2023-05-16T04:02:42;24.93;;;3.70;;
26040;SDS011;13816;53.628;9.950;2023-05-16T04:05:25;18.03;;;3.00;;
26040;SDS011;13816;53.628;9.950;2023-05-16T04:08:05;14.70;;;2.50;;
26040;SDS011;13816;53.628;9.950;2023-05-16T04:22:34;22.33;;;4.57;;
26040;SDS011;13816;53.628;9.950;2023-05-16T04:25:06;16.00;;;2.80;;
26040;SDS011;13816;53.628;9.950;2023-05-16T04:27:38;18.43;;;3.37;;
26040;SDS011;13816;53.628;9.950;2023-05-16T04:30:19;15.93;;;3.70;;
26040;SDS011;13816;53.628;9.950;2023-05-16T04:33:10;22.13;;;3.17;;
26040;SDS011;13816;53.628;9.950;2023-05-16T04:44:23;17.83;;;3.10;;
26040;SDS011;13816;53.628;9.950;2023-05-16T04:46:53;20.37;;;3.60;;
26040;SDS011;13816;53.628;9.950;2023-05-16T04:49:27;17.93;;;3.03;;
26040;SDS011;13816;53.628;9.950;2023-05-16T04:56:14;9.57;;;2.77;;
26040;SDS011;13816;53.628;9.950;2023-05-16T04:58:44;18.47;;;2.93;;
26040;SDS011;13816;53.628;9.950;2023-05-16T05:01:24;20.93;;;3.23;;
26040;SDS011;13816;53.628;9.950;2023-05-16T05:04:10;15.10;;;3.10;;
26040;SDS011;13816;53.628;9.950;2023-05-16T05:06:54;14.10;;;3.30;;
26040;SDS011;13816;53.628;9.950;2023-05-16T05:09:27;22.80;;;2.97;;
26040;SDS011;13816;53.628;9.950;2023-05-16T05:12:14;18.73;;;2.90;;
26040;SDS011;13816;53.628;9.950;2023-05-16T05:14:45;19.60;;;2.97;;
26040;SDS011;13816;53.628;9.950;2023-05-16T05:17:18;13.53;;;3.00;;
26040;SDS011;13816;53.628;9.950;2023-05-16T05:20:00;11.30;;;2.63;;
26040;SDS011;13816;53.628;9.950;2023-05-16T05:22:28;17.90;;;3.33;;
26040;SDS011;13816;53.628;9.950;2023-05-16T05:25:02;10.57;;;2.37;;
26040;SDS011;13816;53.628;9.950;2023-05-16T05:27:33;18.73;;;3.43;;
26040;SDS011;13816;53.628;9.950;2023-05-16T05:38:34;21.83;;;2.80;;
26040;SDS011;13816;53.628;9.950;2023-05-16T05:44:01;12.50;;;2.77;;
26040;SDS011;13816;53.628;9.950;2023-05-16T05:46:59;12.73;;;2.80;;
26040;SDS011;13816;53.628;9.950;2023-05-16T05:49:38;13.90;;;2.37;;
26040;SDS011;13816;53.628;9.950;2023-05-16T05:57:04;17.10;;;3.27;;
26040;SDS011;13816;53.628;9.950;2023-05-16T05:59:39;16.23;;;2.33;;
26040;SDS011;13816;53.628;9.950;2023-05-16T06:02:10;12.20;;;2.70;;
26040;SDS011;13816;53.628;9.950;2023-05-16T06:04:54;12.93;;;2.83;;
26040;SDS011;13816;53.628;9.950;2023-05-16T06:07:24;13.83;;;2.77;;
26040;SDS011;13816;53.628;9.950;2023-05-16T06:09:55;8.70;;;2.50;;
26040;SDS011;13816;53.628;9.950;2023-05-16T06:12:28;18.37;;;2.70;;
26040;SDS011;13816;53.628;9.950;2023-05-16T06:15:07;9.10;;;2.53;;
26040;SDS011;13816;53.628;9.950;2023-05-16T06:17:44;17.20;;;2.50;;
26040;SDS011;13816;53.628;9.950;2023-05-16T06:29:51;11.10;;;2.37;;
26040;SDS011;13816;53.628;9.950;2023-05-16T06:35:16;21.00;;;2.60;;
26040;SDS011;13816;53.628;9.950;2023-05-16T06:37:50;10.63;;;2.80;;
26040;SDS011;13816;53.628;9.950;2023-05-16T06:40:22;13.30;;;3.17;;
26040;SDS011;13816;53.628;9.950;2023-05-16T06:42:53;13.97;;;2.90;;
26040;SDS011;13816;53.628;9.950;2023-05-16T06:45:29;15.80;;;2.97;;
26040;SDS011;13816;53.628;9.950;2023-05-16T06:48:09;11.63;;;3.30;;
26040;SDS011;13816;53.628;9.950;2023-05-16T07:40:17;10.20;;;2.60;;
26040;SDS011;13816;53.628;9.950;2023-05-16T07:42:46;11.40;;;1.77;;
26040;SDS011;13816;53.628;9.950;2023-05-16T07:45:14;7.57;;;1.90;;
26040;SDS011;13816;53.628;9.950;2023-05-16T07:47:41;7.83;;;1.80;;
26040;SDS011;13816;53.628;9.950;2023-05-16T07:50:09;6.20;;;1.70;;
26040;SDS011;13816;53.628;9.950;2023-05-16T07:52:39;20.03;;;3.10;;
26040;SDS011;13816;53.628;9.950;2023-05-16T07:55:07;9.63;;;2.00;;
26040;SDS011;13816;53.628;9.950;2023-05-16T07:57:35;9.40;;;1.60;;
26040;SDS011;13816;53.628;9.950;2023-05-16T08:00:03;14.27;;;2.03;;
26040;SDS011;13816;53.628;9.950;2023-05-16T08:02:38;8.20;;;1.77;;
26040;SDS011;13816;53.628;9.950;2023-05-16T08:05:10;6.70;;;1.57;;
26040;SDS011;13816;53.628;9.950;2023-05-16T08:07:38;7.50;;;1.80;;
26040;SDS011;13816;53.628;9.950;2023-05-16T08:10:06;7.40;;;1.73;;
26040;SDS011;13816;53.628;9.950;2023-05-16T08:12:35;17.17;;;2.30;;
26040;SDS011;13816;53.628;9.950;2023-05-16T08:15:09;10.77;;;1.60;;
26040;SDS011;13816;53.628;9.950;2023-05-16T08:17:41;14.13;;;2.50;;
26040;SDS011;13816;53.628;9.950;2023-05-16T08:20:09;9.60;;;2.00;;
26040;SDS011;13816;53.628;9.950;2023-05-16T08:22:37;5.53;;;2.30;;
26040;SDS011;13816;53.628;9.950;2023-05-16T08:25:04;10.37;;;2.07;;
26040;SDS011;13816;53.628;9.950;2023-05-16T08:27:33;11.47;;;2.20;;
26040;SDS011;13816;53.628;9.950;2023-05-16T08:30:00;10.67;;;2.57;;
26040;SDS011;13816;53.628;9.950;2023-05-16T08:32:28;8.90;;;2.70;;
26040;SDS011;13816;53.628;9.950;2023-05-16T08:34:56;11.03;;;2.03;;
26040;SDS011;13816;53.628;9.950;2023-05-16T08:37:23;12.10;;;2.57;;
26040;SDS011;13816;53.628;9.950;2023-05-16T08:39:51;9.93;;;2.17;;
26040;SDS011;13816;53.628;9.950;2023-05-16T08:42:27;7.30;;;1.90;;
26040;SDS011;13816;53.628;9.950;2023-05-16T08:44:55;7.90;;;1.30;;
26040;SDS011;13816;53.628;9.950;2023-05-16T08:47:23;7.23;;;1.77;;
26040;SDS011;13816;53.628;9.950;2023-05-16T08:49:53;10.53;;;1.97;;
26040;SDS011;13816;53.628;9.950;2023-05-16T08:52:21;4.73;;;1.60;;
26040;SDS011;13816;53.628;9.950;2023-05-16T08:55:03;4.73;;;1.43;;
26040;SDS011;13816;53.628;9.950;2023-05-16T08:57:37;9.80;;;2.00;;
26040;SDS011;13816;53.628;9.950;2023-05-16T09:00:08;5.47;;;2.20;;
26040;SDS011;13816;53.628;9.950;2023-05-16T09:02:45;9.80;;;1.60;;
26040;SDS011;13816;53.628;9.950;2023-05-16T09:05:25;9.03;;;2.60;;
26040;SDS011;13816;53.628;9.950;2023-05-16T09:07:57;7.20;;;1.73;;
26040;SDS011;13816;53.628;9.950;2023-05-16T09:10:25;16.47;;;2.50;;
26040;SDS011;13816;53.628;9.950;2023-05-16T09:12:53;7.20;;;1.60;;
26040;SDS011;13816;53.628;9.950;2023-05-16T09:15:27;8.53;;;2.00;;
26040;SDS011;13816;53.628;9.950;2023-05-16T09:18:00;20.73;;;2.60;;
26040;SDS011;13816;53.628;9.950;2023-05-16T09:20:28;13.27;;;2.10;;
26040;SDS011;13816;53.628;9.950;2023-05-16T09:22:57;6.07;;;2.07;;
26040;SDS011;13816;53.628;9.950;2023-05-16T09:25:26;12.03;;;2.23;;
26040;SDS011;13816;53.628;9.950;2023-05-16T09:28:00;7.63;;;2.00;;
26040;SDS011;13816;53.628;9.950;2023-05-16T09:30:29;19.27;;;2.40;;
26040;SDS011;13816;53.628;9.950;2023-05-16T09:33:00;7.33;;;2.43;;
26040;SDS011;13816;53.628;9.950;2023-05-16T09:35:28;8.50;;;1.80;;
26040;SDS011;13816;53.628;9.950;2023-05-16T09:38:06;7.23;;;2.03;;
26040;SDS011;13816;53.628;9.950;2023-05-16T09:40:40;7.17;;;1.87;;
26040;SDS011;13816;53.628;9.950;2023-05-16T09:43:07;4.50;;;1.57;;
26040;SDS011;13816;53.628;9.950;2023-05-16T09:45:37;4.17;;;1.40;;
26040;SDS011;13816;53.628;9.950;2023-05-16T09:48:11;11.63;;;2.33;;
26040;SDS011;13816;53.628;9.950;2023-05-16T09:50:40;10.83;;;2.17;;
26040;SDS011;13816;53.628;9.950;2023-05-16T09:53:13;12.17;;;2.40;;
26040;SDS011;13816;53.628;9.950;2023-05-16T09:55:40;9.97;;;2.30;;
26040;SDS011;13816;53.628;9.950;2023-05-16T09:58:36;13.10;;;2.13;;
26040;SDS011;13816;53.628;9.950;2023-05-16T10:01:04;11.90;;;2.20;;
26040;SDS011;13816;53.628;9.950;2023-05-16T10:03:38;14.07;;;2.63;;
26040;SDS011;13816;53.628;9.950;2023-05-16T10:06:06;12.00;;;2.57;;
26040;SDS011;13816;53.628;9.950;2023-05-16T10:08:35;7.33;;;2.30;;
26040;SDS011;13816;53.628;9.950;2023-05-16T10:11:03;6.17;;;2.57;;
26040;SDS011;13816;53.628;9.950;2023-05-16T10:13:32;7.90;;;2.00;;
26040;SDS011;13816;53.628;9.950;2023-05-16T10:16:01;10.57;;;2.43;;
26040;SDS011;13816;53.628;9.950;2023-05-16T10:18:33;14.13;;;2.83;;
26040;SDS011;13816;53.628;9.950;2023-05-16T10:21:06;11.87;;;2.77;;
26040;SDS011;13816;53.628;9.950;2023-05-16T10:23:37;8.60;;;2.80;;
26040;SDS011;13816;53.628;9.950;2023-05-16T10:26:06;9.80;;;3.30;;
26040;SDS011;13816;53.628;9.950;2023-05-16T10:28:34;12.00;;;3.27;;
26040;SDS011;13816;53.628;9.950;2023-05-16T10:31:02;14.87;;;2.80;;
26040;SDS011;13816;53.628;9.950;2023-05-16T10:33:30;17.00;;;3.07;;
26040;SDS011;13816;53.628;9.950;2023-05-16T10:35:57;9.90;;;3.10;;
26040;SDS011;13816;53.628;9.950;2023-05-16T10:38:25;20.23;;;7.67;;
26040;SDS011;13816;53.628;9.950;2023-05-16T10:40:53;32.43;;;7.50;;
26040;SDS011;13816;53.628;9.950;2023-05-16T10:43:22;12.53;;;2.93;;
26040;SDS011;13816;53.628;9.950;2023-05-16T10:45:53;14.30;;;3.93;;
26040;SDS011;13816;53.628;9.950;2023-05-16T10:48:28;8.47;;;2.10;;
26040;SDS011;13816;53.628;9.950;2023-05-16T10:50:56;8.13;;;2.40;;
26040;SDS011;13816;53.628;9.950;2023-05-16T11:04:27;7.30;;;2.60;;
26040;SDS011;13816;53.628;9.950;2023-05-16T11:06:33;11.20;;;2.27;;
26040;SDS011;13816;53.628;9.950;2023-05-16T11:11:41;5.97;;;1.97;;
26040;SDS011;13816;53.628;9.950;2023-05-16T11:14:20;7.87;;;2.20;;
26040;SDS011;13816;53.628;9.950;2023-05-16T11:16:52;6.33;;;1.80;;
26040;SDS011;13816;53.628;9.950;2023-05-16T11:19:29;4.20;;;1.40;;
26040;SDS011;13816;53.628;9.950;2023-05-16T11:24:34;8.03;;;2.03;;
26040;SDS011;13816;53.628;9.950;2023-05-16T11:40:16;8.37;;;1.70;;
26040;SDS011;13816;53.628;9.950;2023-05-16T11:42:45;6.80;;;1.67;;
26040;SDS011;13816;53.628;9.950;2023-05-16T11:45:18;5.10;;;1.40;;
26040;SDS011;13816;53.628;9.950;2023-05-16T11:47:47;6.63;;;1.63;;
26040;SDS011;13816;53.628;9.950;2023-05-16T11:50:18;5.20;;;1.57;;
26040;SDS011;13816;53.628;9.950;2023-05-16T11:52:50;3.23;;;1.63;;
26040;SDS011;13816;53.628;9.950;2023-05-16T11:55:25;4.30;;;1.20;;
26040;SDS011;13816;53.628;9.950;2023-05-16T11:58:06;5.53;;;1.87;;
26040;SDS011;13816;53.628;9.950;2023-05-16T12:00:34;6.23;;;1.47;;
26040;SDS011;13816;53.628;9.950;2023-05-16T12:03:02;4.40;;;1.60;;
26040;SDS011;13816;53.628;9.950;2023-05-16T12:05:30;8.00;;;1.67;;
26040;SDS011;13816;53.628;9.950;2023-05-16T12:07:58;9.43;;;1.83;;
26040;SDS011;13816;53.628;9.950;2023-05-16T12:10:26;10.00;;;1.63;;
26040;SDS011;13816;53.628;9.950;2023-05-16T12:12:53;12.67;;;2.07;;
26040;SDS011;13816;53.628;9.950;2023-05-16T12:15:21;5.80;;;1.30;;
26040;SDS011;13816;53.628;9.950;2023-05-16T12:17:49;4.83;;;1.50;;
26040;SDS011;13816;53.628;9.950;2023-05-16T12:20:17;4.73;;;1.83;;
26040;SDS011;13816;53.628;9.950;2023-05-16T12:22:44;6.03;;;2.37;;
26040;SDS011;13816;53.628;9.950;2023-05-16T12:25:22;8.07;;;1.60;;
26040;SDS011;13816;53.628;9.950;2023-05-16T12:27:55;7.93;;;1.90;;
26040;SDS011;13816;53.628;9.950;2023-05-16T12:30:23;8.40;;;1.80;;
26040;SDS011;13816;53.628;9.950;2023-05-16T12:35:49;4.47;;;1.43;;
26040;SDS011;13816;53.628;9.950;2023-05-16T12:38:18;5.57;;;1.73;;
26040;SDS011;13816;53.628;9.950;2023-05-16T12:40:45;6.30;;;1.90;;
26040;SDS011;13816;53.628;9.950;2023-05-16T12:43:14;12.10;;;2.10;;
26040;SDS011;13816;53.628;9.950;2023-05-16T12:45:43;5.33;;;1.83;;
26040;SDS011;13816;53.628;9.950;2023-05-16T12:48:15;12.50;;;2.23;;
26040;SDS011;13816;53.628;9.950;2023-05-16T12:50:43;9.03;;;2.20;;
26040;SDS011;13816;53.628;9.950;2023-05-16T12:53:15;9.67;;;2.80;;
26040;SDS011;13816;53.628;9.950;2023-05-16T12:55:42;13.23;;;2.97;;
26040;SDS011;13816;53.628;9.950;2023-05-16T12:58:10;16.57;;;2.20;;
26040;SDS011;13816;53.628;9.950;2023-05-16T13:00:38;12.87;;;2.87;;
26040;SDS011;13816;53.628;9.950;2023-05-16T13:03:05;14.27;;;2.47;;
26040;SDS011;13816;53.628;9.950;2023-05-16T13:05:33;10.00;;;2.30;;
26040;SDS011;13816;53.628;9.950;2023-05-16T13:08:01;6.73;;;1.60;;
26040;SDS011;13816;53.628;9.950;2023-05-16T13:15:12;5.37;;;1.70;;
26040;SDS011;13816;53.628;9.950;2023-05-16T13:38:39;11.00;;;1.57;;
26040;SDS011;13816;53.628;9.950;2023-05-16T14:23:42;4.07;;;1.10;;
26040;SDS011;13816;53.628;9.950;2023-05-16T14:26:10;4.13;;;1.53;;
26040;SDS011;13816;53.628;9.950;2023-05-16T14:28:37;6.90;;;1.70;;
26040;SDS011;13816;53.628;9.950;2023-05-16T14:31:06;4.33;;;2.00;;
26040;SDS011;13816;53.628;9.950;2023-05-16T14:33:34;6.00;;;1.83;;
26040;SDS011;13816;53.628;9.950;2023-05-16T14:36:02;6.40;;;2.20;;
26040;SDS011;13816;53.628;9.950;2023-05-16T14:38:34;5.90;;;1.90;;
26040;SDS011;13816;53.628;9.950;2023-05-16T14:41:04;4.43;;;1.63;;
26040;SDS011;13816;53.628;9.950;2023-05-16T14:43:32;7.10;;;1.73;;
26040;SDS011;13816;53.628;9.950;2023-05-16T14:46:00;5.03;;;1.40;;
26040;SDS011;13816;53.628;9.950;2023-05-16T14:48:28;7.60;;;1.30;;
26040;SDS011;13816;53.628;9.950;2023-05-16T14:51:00;9.80;;;1.17;;
26040;SDS011;13816;53.628;9.950;2023-05-16T14:53:29;4.00;;;1.47;;
26040;SDS011;13816;53.628;9.950;2023-05-16T14:55:57;7.13;;;2.00;;
26040;SDS011;13816;53.628;9.950;2023-05-16T14:58:25;8.77;;;2.00;;
26040;SDS011;13816;53.628;9.950;2023-05-16T15:00:52;7.83;;;1.90;;
26040;SDS011;13816;53.628;9.950;2023-05-16T15:03:20;11.03;;;2.00;;
26040;SDS011;13816;53.628;9.950;2023-05-16T15:05:48;7.93;;;1.83;;
26040;SDS011;13816;53.628;9.950;2023-05-16T15:08:16;10.43;;;2.07;;
26040;SDS011;13816;53.628;9.950;2023-05-16T15:10:43;7.37;;;2.17;;
26040;SDS011;13816;53.628;9.950;2023-05-16T15:13:11;14.50;;;2.20;;
26040;SDS011;13816;53.628;9.950;2023-05-16T15:15:39;6.80;;;2.57;;
26040;SDS011;13816;53.628;9.950;2023-05-16T15:18:07;13.83;;;2.50;;
26040;SDS011;13816;53.628;9.950;2023-05-16T15:20:39;8.97;;;2.47;;
26040;SDS011;13816;53.628;9.950;2023-05-16T15:23:07;17.00;;;3.40;;
26040;SDS011;13816;53.628;9.950;2023-05-16T15:25:35;12.47;;;2.83;;
26040;SDS011;13816;53.628;9.950;2023-05-16T15:28:02;12.73;;;2.40;;
26040;SDS011;13816;53.628;9.950;2023-05-16T15:30:29;11.67;;;2.53;;
26040;SDS011;13816;53.628;9.950;2023-05-16T15:32:57;17.13;;;2.87;;
26040;SDS011;13816;53.628;9.950;2023-05-16T16:10:08;7.33;;;3.50;;
26040;SDS011;13816;53.628;9.950;2023-05-16T16:12:38;6.40;;;2.17;;
26040;SDS011;13816;53.628;9.950;2023-05-16T16:36:25;4.27;;;2.00;;
26040;SDS011;13816;53.628;9.950;2023-05-16T16:38:53;3.90;;;1.90;;
26040;SDS011;13816;53.628;9.950;2023-05-16T16:41:24;5.70;;;2.30;;
26040;SDS011;13816;53.628;9.950;2023-05-16T16:43:52;2.00;;;1.53;;
26040;SDS011;13816;53.628;9.950;2023-05-16T16:46:35;4.90;;;1.90;;
26040;SDS011;13816;53.628;9.950;2023-05-16T16:49:04;5.80;;;2.20;;
26040;SDS011;13816;53.628;9.950;2023-05-16T16:55:59;5.40;;;1.67;;
26040;SDS011;13816;53.628;9.950;2023-05-16T16:58:32;7.90;;;2.30;;
26040;SDS011;13816;53.628;9.950;2023-05-16T17:04:49;9.93;;;2.07;;
26040;SDS011;13816;53.628;9.950;2023-05-16T17:07:30;8.93;;;2.40;;
26040;SDS011;13816;53.628;9.950;2023-05-16T17:10:37;8.93;;;3.07;;
26040;SDS011;13816;53.628;9.950;2023-05-16T17:13:15;12.33;;;3.50;;
26040;SDS011;13816;53.628;9.950;2023-05-16T17:15:51;8.57;;;3.00;;
26040;SDS011;13816;53.628;9.950;2023-05-16T17:23:05;11.17;;;3.17;;
26040;SDS011;13816;53.628;9.950;2023-05-16T17:37:30;12.17;;;3.50;;
26040;SDS011;13816;53.628;9.950;2023-05-16T17:40:34;15.17;;;3.63;;
26040;SDS011;13816;53.628;9.950;2023-05-16T17:50:54;14.17;;;4.10;;
26040;SDS011;13816;53.628;9.950;2023-05-16T17:58:45;19.00;;;5.90;;
26040;SDS011;13816;53.628;9.950;2023-05-16T18:03:03;14.33;;;5.20;;
26040;SDS011;13816;53.628;9.950;2023-05-16T18:29:31;26.50;;;6.50;;
26040;SDS011;13816;53.628;9.950;2023-05-16T19:26:54;29.23;;;7.15;;
26040;SDS011;13816;53.628;9.950;2023-05-16T19:31:05;26.90;;;7.30;;
26040;SDS011;13816;53.628;9.950;2023-05-16T19:35:26;28.83;;;7.57;;
26040;SDS011;13816;53.628;9.950;2023-05-16T19:45:51;23.50;;;7.70;;
26040;SDS011;13816;53.628;9.950;2023-05-16T19:49:22;26.43;;;6.80;;
26040;SDS011;13816;53.628;9.950;2023-05-16T20:01:43;23.97;;;6.00;;
26040;SDS011;13816;53.628;9.950;2023-05-16T20:06:10;28.10;;;7.30;;
26040;SDS011;13816;53.628;9.950;2023-05-16T20:10:43;19.87;;;6.10;;
26040;SDS011;13816;53.628;9.950;2023-05-16T20:49:39;30.40;;;6.70;;
26040;SDS011;13816;53.628;9.950;2023-05-16T20:52:21;26.33;;;7.20;;
26040;SDS011;13816;53.628;9.950;2023-05-16T21:29:58;23.20;;;6.50;;
26040;SDS011;13816;53.628;9.950;2023-05-16T21:32:34;30.43;;;6.80;;
26040;SDS011;13816;53.628;9.950;2023-05-16T22:02:34;38.43;;;7.63;;
26040;SDS011;13816;53.628;9.950;2023-05-16T22:05:06;32.53;;;9.00;;
26040;SDS011;13816;53.628;9.950;2023-05-16T23:38:58;27.97;;;6.17;;
